sensor_id;sensor_type;location;lat;lon;timestamp;P1;durP1;ratioP1;P2;durP2;ratioP2
11986;SDS011;6053;51.382;6.768;2023-05-07T00:01:24;0.30;;;0.30;;
11986;SDS011;6053;51.382;6.768;2023-05-07T00:03:53;0.38;;;0.38;;
11986;SDS011;6053;51.382;6.768;2023-05-07T00:06:23;0.40;;;0.40;;
11986;SDS011;6053;51.382;6.768;2023-05-07T00:08:52;0.30;;;0.30;;
11986;SDS011;6053;51.382;6.768;2023-05-07T00:11:21;0.20;;;0.20;;
11986;SDS011;6053;51.382;6.768;2023-05-07T00:13:49;0.20;;;0.20;;
11986;SDS011;6053;51.382;6.768;2023-05-07T00:16:17;0.95;;;0.40;;
11986;SDS011;6053;51.382;6.768;2023-05-07T00:18:46;0.30;;;0.30;;
11986;SDS011;6053;51.382;6.768;2023-05-07T00:21:14;0.50;;;0.50;;
11986;SDS011;6053;51.382;6.768;2023-05-07T00:23:44;0.30;;;0.30;;
11986;SDS011;6053;51.382;6.768;2023-05-07T00:26:12;0.20;;;0.20;;
11986;SDS011;6053;51.382;6.768;2023-05-07T00:28:40;0.50;;;0.40;;
11986;SDS011;6053;51.382;6.768;2023-05-07T00:31:09;1.00;;;0.40;;
11986;SDS011;6053;51.382;6.768;2023-05-07T00:33:37;0.10;;;0.10;;
11986;SDS011;6053;51.382;6.768;2023-05-07T00:36:06;0.23;;;0.23;;
11986;SDS011;6053;51.382;6.768;2023-05-07T00:38:34;0.20;;;0.20;;
11986;SDS011;6053;51.382;6.768;2023-05-07T00:41:04;0.20;;;0.20;;
11986;SDS011;6053;51.382;6.768;2023-05-07T00:43:32;1.05;;;0.30;;
11986;SDS011;6053;51.382;6.768;2023-05-07T00:46:01;0.20;;;0.20;;
11986;SDS011;6053;51.382;6.768;2023-05-07T00:48:29;0.20;;;0.20;;
11986;SDS011;6053;51.382;6.768;2023-05-07T00:50:59;0.20;;;0.20;;
11986;SDS011;6053;51.382;6.768;2023-05-07T00:53:27;0.20;;;0.20;;
11986;SDS011;6053;51.382;6.768;2023-05-07T00:55:55;0.28;;;0.28;;
11986;SDS011;6053;51.382;6.768;2023-05-07T00:58:25;0.10;;;0.10;;
11986;SDS011;6053;51.382;6.768;2023-05-07T01:00:54;0.10;;;0.10;;
11986;SDS011;6053;51.382;6.768;2023-05-07T01:03:22;0.10;;;0.10;;
11986;SDS011;6053;51.382;6.768;2023-05-07T01:05:52;0.50;;;0.20;;
11986;SDS011;6053;51.382;6.768;2023-05-07T01:08:22;0.80;;;0.40;;
11986;SDS011;6053;51.382;6.768;2023-05-07T01:10:53;0.13;;;0.13;;
11986;SDS011;6053;51.382;6.768;2023-05-07T01:13:22;0.60;;;0.60;;
11986;SDS011;6053;51.382;6.768;2023-05-07T01:15:53;0.30;;;0.30;;
11986;SDS011;6053;51.382;6.768;2023-05-07T01:18:21;0.30;;;0.30;;
11986;SDS011;6053;51.382;6.768;2023-05-07T01:20:50;0.30;;;0.30;;
11986;SDS011;6053;51.382;6.768;2023-05-07T01:23:20;0.40;;;0.30;;
11986;SDS011;6053;51.382;6.768;2023-05-07T01:25:51;0.25;;;0.25;;
11986;SDS011;6053;51.382;6.768;2023-05-07T01:28:20;0.30;;;0.30;;
11986;SDS011;6053;51.382;6.768;2023-05-07T01:30:49;0.20;;;0.20;;
11986;SDS011;6053;51.382;6.768;2023-05-07T01:33:22;0.10;;;0.10;;
11986;SDS011;6053;51.382;6.768;2023-05-07T01:35:51;0.30;;;0.30;;
11986;SDS011;6053;51.382;6.768;2023-05-07T01:38:22;0.25;;;0.25;;
11986;SDS011;6053;51.382;6.768;2023-05-07T01:40:52;0.25;;;0.25;;
11986;SDS011;6053;51.382;6.768;2023-05-07T01:43:20;0.70;;;0.47;;
11986;SDS011;6053;51.382;6.768;2023-05-07T01:45:49;0.40;;;0.40;;
11986;SDS011;6053;51.382;6.768;2023-05-07T01:48:18;0.50;;;0.50;;
11986;SDS011;6053;51.382;6.768;2023-05-07T01:50:47;0.55;;;0.32;;
11986;SDS011;6053;51.382;6.768;2023-05-07T01:53:16;0.30;;;0.30;;
11986;SDS011;6053;51.382;6.768;2023-05-07T01:55:45;0.40;;;0.40;;
11986;SDS011;6053;51.382;6.768;2023-05-07T01:58:14;0.60;;;0.60;;
11986;SDS011;6053;51.382;6.768;2023-05-07T02:00:42;0.50;;;0.50;;
11986;SDS011;6053;51.382;6.768;2023-05-07T02:03:10;0.30;;;0.30;;
11986;SDS011;6053;51.382;6.768;2023-05-07T02:05:39;0.63;;;0.63;;
11986;SDS011;6053;51.382;6.768;2023-05-07T02:08:07;0.40;;;0.40;;
11986;SDS011;6053;51.382;6.768;2023-05-07T02:10:36;0.60;;;0.60;;
11986;SDS011;6053;51.382;6.768;2023-05-07T02:13:05;0.43;;;0.43;;
11986;SDS011;6053;51.382;6.768;2023-05-07T02:15:34;0.40;;;0.40;;
11986;SDS011;6053;51.382;6.768;2023-05-07T02:18:03;0.20;;;0.20;;
11986;SDS011;6053;51.382;6.768;2023-05-07T02:20:33;0.30;;;0.30;;
11986;SDS011;6053;51.382;6.768;2023-05-07T02:23:01;0.30;;;0.30;;
11986;SDS011;6053;51.382;6.768;2023-05-07T02:25:30;0.30;;;0.30;;
11986;SDS011;6053;51.382;6.768;2023-05-07T02:27:58;0.40;;;0.40;;
11986;SDS011;6053;51.382;6.768;2023-05-07T02:30:28;0.32;;;0.32;;
11986;SDS011;6053;51.382;6.768;2023-05-07T02:32:56;0.30;;;0.30;;
11986;SDS011;6053;51.382;6.768;2023-05-07T02:35:24;0.40;;;0.40;;
11986;SDS011;6053;51.382;6.768;2023-05-07T02:37:53;0.40;;;0.30;;
11986;SDS011;6053;51.382;6.768;2023-05-07T02:40:21;0.60;;;0.60;;
11986;SDS011;6053;51.382;6.768;2023-05-07T02:42:50;0.30;;;0.30;;
11986;SDS011;6053;51.382;6.768;2023-05-07T02:45:18;0.50;;;0.50;;
11986;SDS011;6053;51.382;6.768;2023-05-07T02:47:48;1.30;;;0.50;;
11986;SDS011;6053;51.382;6.768;2023-05-07T02:50:16;0.30;;;0.30;;
11986;SDS011;6053;51.382;6.768;2023-05-07T02:52:44;0.20;;;0.20;;
11986;SDS011;6053;51.382;6.768;2023-05-07T02:55:13;0.20;;;0.20;;
11986;SDS011;6053;51.382;6.768;2023-05-07T02:57:42;0.40;;;0.40;;
11986;SDS011;6053;51.382;6.768;2023-05-07T03:00:11;0.22;;;0.22;;
11986;SDS011;6053;51.382;6.768;2023-05-07T03:02:41;0.20;;;0.20;;
11986;SDS011;6053;51.382;6.768;2023-05-07T03:05:11;0.22;;;0.22;;
11986;SDS011;6053;51.382;6.768;2023-05-07T03:07:40;0.60;;;0.60;;
11986;SDS011;6053;51.382;6.768;2023-05-07T03:10:11;0.20;;;0.20;;
11986;SDS011;6053;51.382;6.768;2023-05-07T03:12:39;0.20;;;0.20;;
11986;SDS011;6053;51.382;6.768;2023-05-07T03:15:08;0.30;;;0.30;;
11986;SDS011;6053;51.382;6.768;2023-05-07T03:17:39;0.20;;;0.20;;
11986;SDS011;6053;51.382;6.768;2023-05-07T03:20:07;0.20;;;0.20;;
11986;SDS011;6053;51.382;6.768;2023-05-07T03:22:38;0.30;;;0.30;;
11986;SDS011;6053;51.382;6.768;2023-05-07T03:25:08;0.30;;;0.30;;
11986;SDS011;6053;51.382;6.768;2023-05-07T03:27:37;0.20;;;0.20;;
11986;SDS011;6053;51.382;6.768;2023-05-07T03:30:06;0.30;;;0.30;;
11986;SDS011;6053;51.382;6.768;2023-05-07T03:32:36;0.20;;;0.20;;
11986;SDS011;6053;51.382;6.768;2023-05-07T03:35:04;0.30;;;0.30;;
11986;SDS011;6053;51.382;6.768;2023-05-07T03:37:33;0.20;;;0.20;;
11986;SDS011;6053;51.382;6.768;2023-05-07T03:40:04;0.20;;;0.20;;
11986;SDS011;6053;51.382;6.768;2023-05-07T03:42:34;0.20;;;0.20;;
11986;SDS011;6053;51.382;6.768;2023-05-07T03:45:03;0.30;;;0.30;;
11986;SDS011;6053;51.382;6.768;2023-05-07T03:47:32;0.30;;;0.30;;
11986;SDS011;6053;51.382;6.768;2023-05-07T03:50:00;0.30;;;0.30;;
11986;SDS011;6053;51.382;6.768;2023-05-07T03:52:28;0.40;;;0.40;;
11986;SDS011;6053;51.382;6.768;2023-05-07T03:54:57;0.38;;;0.38;;
11986;SDS011;6053;51.382;6.768;2023-05-07T03:57:26;0.20;;;0.20;;
11986;SDS011;6053;51.382;6.768;2023-05-07T03:59:55;0.30;;;0.30;;
11986;SDS011;6053;51.382;6.768;2023-05-07T04:02:23;0.40;;;0.40;;
11986;SDS011;6053;51.382;6.768;2023-05-07T04:04:51;0.20;;;0.20;;
11986;SDS011;6053;51.382;6.768;2023-05-07T04:07:20;0.28;;;0.28;;
11986;SDS011;6053;51.382;6.768;2023-05-07T04:09:48;0.68;;;0.30;;
11986;SDS011;6053;51.382;6.768;2023-05-07T04:12:16;0.30;;;0.30;;
11986;SDS011;6053;51.382;6.768;2023-05-07T04:14:46;0.30;;;0.30;;
11986;SDS011;6053;51.382;6.768;2023-05-07T04:17:14;0.22;;;0.22;;
11986;SDS011;6053;51.382;6.768;2023-05-07T04:19:43;0.30;;;0.30;;
11986;SDS011;6053;51.382;6.768;2023-05-07T04:22:12;0.45;;;0.45;;
11986;SDS011;6053;51.382;6.768;2023-05-07T04:24:40;0.50;;;0.50;;
11986;SDS011;6053;51.382;6.768;2023-05-07T04:27:08;0.30;;;0.30;;
11986;SDS011;6053;51.382;6.768;2023-05-07T04:29:37;0.57;;;0.57;;
11986;SDS011;6053;51.382;6.768;2023-05-07T04:32:10;1.27;;;1.17;;
11986;SDS011;6053;51.382;6.768;2023-05-07T04:34:39;0.40;;;0.40;;
11986;SDS011;6053;51.382;6.768;2023-05-07T04:37:07;0.77;;;0.77;;
11986;SDS011;6053;51.382;6.768;2023-05-07T04:39:35;1.50;;;1.40;;
11986;SDS011;6053;51.382;6.768;2023-05-07T04:42:03;2.17;;;1.98;;
11986;SDS011;6053;51.382;6.768;2023-05-07T04:44:33;0.70;;;0.70;;
11986;SDS011;6053;51.382;6.768;2023-05-07T04:47:03;0.75;;;0.75;;
11986;SDS011;6053;51.382;6.768;2023-05-07T04:49:33;0.77;;;0.77;;
11986;SDS011;6053;51.382;6.768;2023-05-07T04:52:01;0.90;;;0.90;;
11986;SDS011;6053;51.382;6.768;2023-05-07T04:54:30;0.90;;;0.90;;
11986;SDS011;6053;51.382;6.768;2023-05-07T04:56:58;0.77;;;0.77;;
11986;SDS011;6053;51.382;6.768;2023-05-07T04:59:27;0.70;;;0.70;;
11986;SDS011;6053;51.382;6.768;2023-05-07T05:01:55;0.85;;;0.85;;
11986;SDS011;6053;51.382;6.768;2023-05-07T05:04:24;0.70;;;0.70;;
11986;SDS011;6053;51.382;6.768;2023-05-07T05:06:53;1.20;;;1.10;;
11986;SDS011;6053;51.382;6.768;2023-05-07T05:09:22;0.70;;;0.70;;
11986;SDS011;6053;51.382;6.768;2023-05-07T05:11:50;0.65;;;0.65;;
11986;SDS011;6053;51.382;6.768;2023-05-07T05:14:18;0.82;;;0.82;;
11986;SDS011;6053;51.382;6.768;2023-05-07T05:16:46;0.98;;;0.68;;
11986;SDS011;6053;51.382;6.768;2023-05-07T05:19:15;0.47;;;0.47;;
11986;SDS011;6053;51.382;6.768;2023-05-07T05:21:43;0.60;;;0.60;;
11986;SDS011;6053;51.382;6.768;2023-05-07T05:24:13;0.70;;;0.70;;
11986;SDS011;6053;51.382;6.768;2023-05-07T05:26:41;0.60;;;0.60;;
11986;SDS011;6053;51.382;6.768;2023-05-07T05:29:09;0.80;;;0.80;;
11986;SDS011;6053;51.382;6.768;2023-05-07T05:31:37;0.55;;;0.55;;
11986;SDS011;6053;51.382;6.768;2023-05-07T05:34:08;0.77;;;0.73;;
11986;SDS011;6053;51.382;6.768;2023-05-07T05:36:36;1.17;;;0.50;;
11986;SDS011;6053;51.382;6.768;2023-05-07T05:39:04;1.10;;;1.00;;
11986;SDS011;6053;51.382;6.768;2023-05-07T05:41:34;0.80;;;0.80;;
11986;SDS011;6053;51.382;6.768;2023-05-07T05:44:02;0.50;;;0.50;;
11986;SDS011;6053;51.382;6.768;2023-05-07T05:46:31;0.95;;;0.80;;
11986;SDS011;6053;51.382;6.768;2023-05-07T05:49:02;0.70;;;0.60;;
11986;SDS011;6053;51.382;6.768;2023-05-07T05:51:30;1.00;;;0.90;;
11986;SDS011;6053;51.382;6.768;2023-05-07T05:53:58;1.02;;;0.60;;
11986;SDS011;6053;51.382;6.768;2023-05-07T05:56:27;0.40;;;0.40;;
11986;SDS011;6053;51.382;6.768;2023-05-07T05:58:56;0.85;;;0.85;;
11986;SDS011;6053;51.382;6.768;2023-05-07T06:01:25;0.60;;;0.60;;
11986;SDS011;6053;51.382;6.768;2023-05-07T06:03:53;0.70;;;0.60;;
11986;SDS011;6053;51.382;6.768;2023-05-07T06:06:22;0.60;;;0.60;;
11986;SDS011;6053;51.382;6.768;2023-05-07T06:08:50;1.10;;;1.00;;
11986;SDS011;6053;51.382;6.768;2023-05-07T06:11:18;0.77;;;0.77;;
11986;SDS011;6053;51.382;6.768;2023-05-07T06:13:47;0.77;;;0.77;;
11986;SDS011;6053;51.382;6.768;2023-05-07T06:16:16;0.60;;;0.60;;
11986;SDS011;6053;51.382;6.768;2023-05-07T06:18:45;2.50;;;1.30;;
11986;SDS011;6053;51.382;6.768;2023-05-07T06:21:13;1.50;;;0.90;;
11986;SDS011;6053;51.382;6.768;2023-05-07T06:23:41;0.80;;;0.80;;
11986;SDS011;6053;51.382;6.768;2023-05-07T06:26:10;0.75;;;0.70;;
11986;SDS011;6053;51.382;6.768;2023-05-07T06:28:39;0.50;;;0.50;;
11986;SDS011;6053;51.382;6.768;2023-05-07T06:31:10;2.60;;;1.10;;
11986;SDS011;6053;51.382;6.768;2023-05-07T06:33:41;0.90;;;0.50;;
11986;SDS011;6053;51.382;6.768;2023-05-07T06:36:11;0.82;;;0.73;;
11986;SDS011;6053;51.382;6.768;2023-05-07T06:38:40;0.73;;;0.73;;
11986;SDS011;6053;51.382;6.768;2023-05-07T06:41:08;2.00;;;0.80;;
11986;SDS011;6053;51.382;6.768;2023-05-07T06:43:37;1.85;;;1.10;;
11986;SDS011;6053;51.382;6.768;2023-05-07T06:46:05;0.60;;;0.60;;
11986;SDS011;6053;51.382;6.768;2023-05-07T06:48:33;0.90;;;0.70;;
11986;SDS011;6053;51.382;6.768;2023-05-07T06:51:03;0.60;;;0.60;;
11986;SDS011;6053;51.382;6.768;2023-05-07T06:53:32;0.60;;;0.60;;
11986;SDS011;6053;51.382;6.768;2023-05-07T06:56:01;0.60;;;0.60;;
11986;SDS011;6053;51.382;6.768;2023-05-07T06:58:30;0.65;;;0.65;;
11986;SDS011;6053;51.382;6.768;2023-05-07T07:00:58;0.70;;;0.70;;
11986;SDS011;6053;51.382;6.768;2023-05-07T07:03:26;0.43;;;0.43;;
11986;SDS011;6053;51.382;6.768;2023-05-07T07:05:54;0.60;;;0.60;;
11986;SDS011;6053;51.382;6.768;2023-05-07T07:08:24;0.47;;;0.47;;
11986;SDS011;6053;51.382;6.768;2023-05-07T07:10:52;0.35;;;0.35;;
11986;SDS011;6053;51.382;6.768;2023-05-07T07:13:21;0.40;;;0.40;;
11986;SDS011;6053;51.382;6.768;2023-05-07T07:15:49;0.70;;;0.70;;
11986;SDS011;6053;51.382;6.768;2023-05-07T07:18:17;1.67;;;0.90;;
11986;SDS011;6053;51.382;6.768;2023-05-07T07:20:46;1.00;;;0.90;;
11986;SDS011;6053;51.382;6.768;2023-05-07T07:23:15;0.88;;;0.70;;
11986;SDS011;6053;51.382;6.768;2023-05-07T07:25:44;0.50;;;0.47;;
11986;SDS011;6053;51.382;6.768;2023-05-07T07:28:13;0.93;;;0.82;;
11986;SDS011;6053;51.382;6.768;2023-05-07T07:30:41;0.50;;;0.50;;
11986;SDS011;6053;51.382;6.768;2023-05-07T07:33:10;1.10;;;0.73;;
11986;SDS011;6053;51.382;6.768;2023-05-07T07:35:38;0.57;;;0.50;;
11986;SDS011;6053;51.382;6.768;2023-05-07T07:38:07;0.60;;;0.60;;
11986;SDS011;6053;51.382;6.768;2023-05-07T07:40:35;0.50;;;0.50;;
11986;SDS011;6053;51.382;6.768;2023-05-07T07:43:05;0.60;;;0.60;;
11986;SDS011;6053;51.382;6.768;2023-05-07T07:45:33;0.60;;;0.50;;
11986;SDS011;6053;51.382;6.768;2023-05-07T07:48:02;2.03;;;0.85;;
11986;SDS011;6053;51.382;6.768;2023-05-07T07:50:31;0.43;;;0.43;;
11986;SDS011;6053;51.382;6.768;2023-05-07T07:53:10;0.60;;;0.60;;
11986;SDS011;6053;51.382;6.768;2023-05-07T07:55:38;0.90;;;0.70;;
11986;SDS011;6053;51.382;6.768;2023-05-07T07:58:08;0.63;;;0.63;;
11986;SDS011;6053;51.382;6.768;2023-05-07T08:00:36;0.80;;;0.43;;
11986;SDS011;6053;51.382;6.768;2023-05-07T08:03:04;0.88;;;0.60;;
11986;SDS011;6053;51.382;6.768;2023-05-07T08:05:33;0.50;;;0.40;;
11986;SDS011;6053;51.382;6.768;2023-05-07T08:08:02;1.30;;;0.63;;
11986;SDS011;6053;51.382;6.768;2023-05-07T08:10:32;0.70;;;0.70;;
11986;SDS011;6053;51.382;6.768;2023-05-07T08:13:04;0.85;;;0.65;;
11986;SDS011;6053;51.382;6.768;2023-05-07T08:15:34;1.08;;;0.57;;
11986;SDS011;6053;51.382;6.768;2023-05-07T08:18:03;0.70;;;0.60;;
11986;SDS011;6053;51.382;6.768;2023-05-07T08:20:31;0.50;;;0.50;;
11986;SDS011;6053;51.382;6.768;2023-05-07T08:23:05;0.63;;;0.60;;
11986;SDS011;6053;51.382;6.768;2023-05-07T08:25:34;1.50;;;0.80;;
11986;SDS011;6053;51.382;6.768;2023-05-07T08:28:02;0.70;;;0.70;;
11986;SDS011;6053;51.382;6.768;2023-05-07T08:30:34;0.28;;;0.28;;
11986;SDS011;6053;51.382;6.768;2023-05-07T08:33:03;0.70;;;0.70;;
11986;SDS011;6053;51.382;6.768;2023-05-07T08:35:31;2.50;;;0.65;;
11986;SDS011;6053;51.382;6.768;2023-05-07T08:37:59;1.60;;;0.70;;
11986;SDS011;6053;51.382;6.768;2023-05-07T08:40:28;1.42;;;0.80;;
11986;SDS011;6053;51.382;6.768;2023-05-07T08:42:57;0.90;;;0.50;;
11986;SDS011;6053;51.382;6.768;2023-05-07T08:45:27;0.70;;;0.52;;
11986;SDS011;6053;51.382;6.768;2023-05-07T08:48:00;2.28;;;0.60;;
11986;SDS011;6053;51.382;6.768;2023-05-07T08:50:32;0.80;;;0.70;;
11986;SDS011;6053;51.382;6.768;2023-05-07T08:53:03;0.60;;;0.60;;
11986;SDS011;6053;51.382;6.768;2023-05-07T08:55:32;0.43;;;0.40;;
11986;SDS011;6053;51.382;6.768;2023-05-07T08:58:00;2.35;;;0.70;;
11986;SDS011;6053;51.382;6.768;2023-05-07T09:00:29;0.73;;;0.53;;
11986;SDS011;6053;51.382;6.768;2023-05-07T09:02:58;1.20;;;0.50;;
11986;SDS011;6053;51.382;6.768;2023-05-07T09:05:28;0.60;;;0.60;;
11986;SDS011;6053;51.382;6.768;2023-05-07T09:07:58;0.70;;;0.70;;
11986;SDS011;6053;51.382;6.768;2023-05-07T09:10:27;1.13;;;0.80;;
11986;SDS011;6053;51.382;6.768;2023-05-07T09:12:56;0.38;;;0.35;;
11986;SDS011;6053;51.382;6.768;2023-05-07T09:15:25;1.70;;;0.50;;
11986;SDS011;6053;51.382;6.768;2023-05-07T09:17:54;0.50;;;0.50;;
11986;SDS011;6053;51.382;6.768;2023-05-07T09:20:30;0.95;;;0.50;;
11986;SDS011;6053;51.382;6.768;2023-05-07T09:22:58;0.80;;;0.50;;
11986;SDS011;6053;51.382;6.768;2023-05-07T09:25:28;0.57;;;0.43;;
11986;SDS011;6053;51.382;6.768;2023-05-07T09:27:57;0.40;;;0.40;;
11986;SDS011;6053;51.382;6.768;2023-05-07T09:30:27;0.40;;;0.40;;
11986;SDS011;6053;51.382;6.768;2023-05-07T09:32:57;1.17;;;0.57;;
11986;SDS011;6053;51.382;6.768;2023-05-07T09:35:28;1.50;;;0.47;;
11986;SDS011;6053;51.382;6.768;2023-05-07T09:37:58;0.60;;;0.30;;
11986;SDS011;6053;51.382;6.768;2023-05-07T09:40:30;0.30;;;0.30;;
11986;SDS011;6053;51.382;6.768;2023-05-07T09:43:08;0.82;;;0.50;;
11986;SDS011;6053;51.382;6.768;2023-05-07T09:45:38;0.68;;;0.60;;
11986;SDS011;6053;51.382;6.768;2023-05-07T09:48:07;0.73;;;0.30;;
11986;SDS011;6053;51.382;6.768;2023-05-07T09:50:39;2.03;;;0.45;;
11986;SDS011;6053;51.382;6.768;2023-05-07T09:53:15;1.10;;;0.40;;
11986;SDS011;6053;51.382;6.768;2023-05-07T09:55:44;0.43;;;0.40;;
11986;SDS011;6053;51.382;6.768;2023-05-07T09:58:13;0.90;;;0.30;;
11986;SDS011;6053;51.382;6.768;2023-05-07T10:00:43;0.40;;;0.30;;
11986;SDS011;6053;51.382;6.768;2023-05-07T10:03:14;0.80;;;0.63;;
11986;SDS011;6053;51.382;6.768;2023-05-07T10:05:43;0.80;;;0.60;;
11986;SDS011;6053;51.382;6.768;2023-05-07T10:08:13;0.82;;;0.38;;
11986;SDS011;6053;51.382;6.768;2023-05-07T10:10:43;1.30;;;0.30;;
11986;SDS011;6053;51.382;6.768;2023-05-07T10:13:12;1.10;;;0.40;;
11986;SDS011;6053;51.382;6.768;2023-05-07T10:15:40;1.65;;;0.55;;
11986;SDS011;6053;51.382;6.768;2023-05-07T10:18:09;1.10;;;0.67;;
11986;SDS011;6053;51.382;6.768;2023-05-07T10:20:41;0.73;;;0.50;;
11986;SDS011;6053;51.382;6.768;2023-05-07T10:23:12;0.30;;;0.30;;
11986;SDS011;6053;51.382;6.768;2023-05-07T10:25:46;0.50;;;0.30;;
11986;SDS011;6053;51.382;6.768;2023-05-07T10:28:15;0.70;;;0.40;;
11986;SDS011;6053;51.382;6.768;2023-05-07T10:30:48;1.60;;;0.38;;
11986;SDS011;6053;51.382;6.768;2023-05-07T10:33:29;0.77;;;0.30;;
11986;SDS011;6053;51.382;6.768;2023-05-07T10:36:01;2.10;;;0.70;;
11986;SDS011;6053;51.382;6.768;2023-05-07T10:38:31;0.93;;;0.40;;
11986;SDS011;6053;51.382;6.768;2023-05-07T10:41:00;0.40;;;0.40;;
11986;SDS011;6053;51.382;6.768;2023-05-07T10:43:38;0.95;;;0.45;;
11986;SDS011;6053;51.382;6.768;2023-05-07T10:46:09;0.30;;;0.30;;
11986;SDS011;6053;51.382;6.768;2023-05-07T10:51:43;0.40;;;0.40;;
11986;SDS011;6053;51.382;6.768;2023-05-07T10:54:18;0.30;;;0.30;;
11986;SDS011;6053;51.382;6.768;2023-05-07T10:56:48;0.70;;;0.40;;
11986;SDS011;6053;51.382;6.768;2023-05-07T10:59:36;0.45;;;0.40;;
11986;SDS011;6053;51.382;6.768;2023-05-07T11:02:08;0.60;;;0.40;;
11986;SDS011;6053;51.382;6.768;2023-05-07T11:04:40;0.65;;;0.65;;
11986;SDS011;6053;51.382;6.768;2023-05-07T11:09:55;0.90;;;0.60;;
11986;SDS011;6053;51.382;6.768;2023-05-07T11:12:46;0.80;;;0.50;;
11986;SDS011;6053;51.382;6.768;2023-05-07T11:15:37;0.32;;;0.22;;
11986;SDS011;6053;51.382;6.768;2023-05-07T11:18:12;0.70;;;0.32;;
11986;SDS011;6053;51.382;6.768;2023-05-07T11:20:44;0.50;;;0.20;;
11986;SDS011;6053;51.382;6.768;2023-05-07T11:26:46;1.20;;;0.47;;
11986;SDS011;6053;51.382;6.768;2023-05-07T11:29:16;0.20;;;0.20;;
11986;SDS011;6053;51.382;6.768;2023-05-07T11:31:48;0.20;;;0.20;;
11986;SDS011;6053;51.382;6.768;2023-05-07T11:34:21;0.30;;;0.30;;
11986;SDS011;6053;51.382;6.768;2023-05-07T11:36:51;1.83;;;0.60;;
11986;SDS011;6053;51.382;6.768;2023-05-07T11:39:26;0.32;;;0.25;;
11986;SDS011;6053;51.382;6.768;2023-05-07T11:41:59;0.40;;;0.30;;
11986;SDS011;6053;51.382;6.768;2023-05-07T11:44:40;0.50;;;0.20;;
11986;SDS011;6053;51.382;6.768;2023-05-07T11:47:16;0.52;;;0.45;;
11986;SDS011;6053;51.382;6.768;2023-05-07T11:49:46;0.70;;;0.60;;
11986;SDS011;6053;51.382;6.768;2023-05-07T11:52:15;1.30;;;0.70;;
11986;SDS011;6053;51.382;6.768;2023-05-07T11:54:48;1.42;;;0.38;;
11986;SDS011;6053;51.382;6.768;2023-05-07T11:57:18;1.27;;;0.57;;
11986;SDS011;6053;51.382;6.768;2023-05-07T11:59:47;1.10;;;0.50;;
11986;SDS011;6053;51.382;6.768;2023-05-07T12:02:15;0.40;;;0.37;;
11986;SDS011;6053;51.382;6.768;2023-05-07T12:04:44;1.10;;;0.50;;
11986;SDS011;6053;51.382;6.768;2023-05-07T12:07:13;2.85;;;0.57;;
11986;SDS011;6053;51.382;6.768;2023-05-07T12:09:42;1.95;;;0.60;;
11986;SDS011;6053;51.382;6.768;2023-05-07T12:12:11;1.00;;;0.50;;
11986;SDS011;6053;51.382;6.768;2023-05-07T12:14:43;1.20;;;0.80;;
11986;SDS011;6053;51.382;6.768;2023-05-07T12:17:13;1.67;;;0.60;;
11986;SDS011;6053;51.382;6.768;2023-05-07T12:19:43;0.55;;;0.43;;
11986;SDS011;6053;51.382;6.768;2023-05-07T12:22:12;2.00;;;0.80;;
11986;SDS011;6053;51.382;6.768;2023-05-07T12:24:42;0.98;;;0.80;;
11986;SDS011;6053;51.382;6.768;2023-05-07T12:27:12;1.65;;;0.68;;
11986;SDS011;6053;51.382;6.768;2023-05-07T12:29:45;1.70;;;0.70;;
11986;SDS011;6053;51.382;6.768;2023-05-07T12:32:14;1.92;;;0.65;;
11986;SDS011;6053;51.382;6.768;2023-05-07T12:34:43;0.80;;;0.80;;
11986;SDS011;6053;51.382;6.768;2023-05-07T12:37:12;0.50;;;0.50;;
11986;SDS011;6053;51.382;6.768;2023-05-07T12:39:44;0.65;;;0.57;;
11986;SDS011;6053;51.382;6.768;2023-05-07T12:42:15;1.70;;;0.60;;
11986;SDS011;6053;51.382;6.768;2023-05-07T12:44:46;2.50;;;0.80;;
11986;SDS011;6053;51.382;6.768;2023-05-07T12:47:14;0.52;;;0.52;;
11986;SDS011;6053;51.382;6.768;2023-05-07T12:49:43;0.80;;;0.57;;
11986;SDS011;6053;51.382;6.768;2023-05-07T12:52:12;0.70;;;0.70;;
11986;SDS011;6053;51.382;6.768;2023-05-07T12:54:40;0.85;;;0.50;;
11986;SDS011;6053;51.382;6.768;2023-05-07T12:57:09;0.90;;;0.75;;
11986;SDS011;6053;51.382;6.768;2023-05-07T12:59:38;0.50;;;0.50;;
11986;SDS011;6053;51.382;6.768;2023-05-07T13:02:09;0.70;;;0.60;;
11986;SDS011;6053;51.382;6.768;2023-05-07T13:04:37;0.85;;;0.60;;
11986;SDS011;6053;51.382;6.768;2023-05-07T13:07:06;0.70;;;0.70;;
11986;SDS011;6053;51.382;6.768;2023-05-07T13:09:34;1.10;;;0.80;;
11986;SDS011;6053;51.382;6.768;2023-05-07T13:12:03;0.70;;;0.70;;
11986;SDS011;6053;51.382;6.768;2023-05-07T13:14:32;0.90;;;0.90;;
11986;SDS011;6053;51.382;6.768;2023-05-07T13:17:00;1.40;;;0.80;;
11986;SDS011;6053;51.382;6.768;2023-05-07T13:19:30;0.93;;;0.90;;
11986;SDS011;6053;51.382;6.768;2023-05-07T13:21:58;2.00;;;1.77;;
11986;SDS011;6053;51.382;6.768;2023-05-07T13:24:26;1.67;;;1.10;;
11986;SDS011;6053;51.382;6.768;2023-05-07T13:26:55;1.77;;;1.00;;
11986;SDS011;6053;51.382;6.768;2023-05-07T13:29:23;1.25;;;1.08;;
11986;SDS011;6053;51.382;6.768;2023-05-07T13:31:56;2.08;;;1.02;;
11986;SDS011;6053;51.382;6.768;2023-05-07T13:34:24;1.20;;;1.10;;
11986;SDS011;6053;51.382;6.768;2023-05-07T13:36:54;1.00;;;1.00;;
11986;SDS011;6053;51.382;6.768;2023-05-07T13:39:22;1.88;;;1.00;;
11986;SDS011;6053;51.382;6.768;2023-05-07T13:41:51;2.38;;;1.25;;
11986;SDS011;6053;51.382;6.768;2023-05-07T13:44:19;1.77;;;1.13;;
11986;SDS011;6053;51.382;6.768;2023-05-07T13:46:48;1.63;;;1.17;;
11986;SDS011;6053;51.382;6.768;2023-05-07T13:49:16;1.20;;;1.10;;
11986;SDS011;6053;51.382;6.768;2023-05-07T13:51:44;1.40;;;1.08;;
11986;SDS011;6053;51.382;6.768;2023-05-07T13:54:14;2.10;;;1.17;;
11986;SDS011;6053;51.382;6.768;2023-05-07T13:56:42;1.50;;;1.40;;
11986;SDS011;6053;51.382;6.768;2023-05-07T13:59:11;1.17;;;1.13;;
11986;SDS011;6053;51.382;6.768;2023-05-07T14:01:40;2.45;;;1.40;;
11986;SDS011;6053;51.382;6.768;2023-05-07T14:04:08;1.25;;;1.15;;
11986;SDS011;6053;51.382;6.768;2023-05-07T14:06:37;1.50;;;1.27;;
11986;SDS011;6053;51.382;6.768;2023-05-07T14:09:06;1.13;;;1.02;;
11986;SDS011;6053;51.382;6.768;2023-05-07T14:11:35;1.10;;;0.90;;
11986;SDS011;6053;51.382;6.768;2023-05-07T14:14:04;1.08;;;1.05;;
11986;SDS011;6053;51.382;6.768;2023-05-07T14:16:32;1.27;;;1.10;;
11986;SDS011;6053;51.382;6.768;2023-05-07T14:19:00;1.10;;;1.10;;
11986;SDS011;6053;51.382;6.768;2023-05-07T14:21:28;1.45;;;1.15;;
11986;SDS011;6053;51.382;6.768;2023-05-07T14:23:57;1.10;;;1.10;;
11986;SDS011;6053;51.382;6.768;2023-05-07T14:26:26;1.10;;;1.10;;
11986;SDS011;6053;51.382;6.768;2023-05-07T14:28:55;3.05;;;1.50;;
11986;SDS011;6053;51.382;6.768;2023-05-07T14:31:24;1.23;;;1.10;;
11986;SDS011;6053;51.382;6.768;2023-05-07T14:33:53;1.60;;;1.50;;
11986;SDS011;6053;51.382;6.768;2023-05-07T14:36:24;1.95;;;1.70;;
11986;SDS011;6053;51.382;6.768;2023-05-07T14:38:53;1.58;;;1.30;;
11986;SDS011;6053;51.382;6.768;2023-05-07T14:41:21;1.88;;;1.77;;
11986;SDS011;6053;51.382;6.768;2023-05-07T14:43:50;3.67;;;1.75;;
11986;SDS011;6053;51.382;6.768;2023-05-07T14:46:19;1.80;;;1.60;;
11986;SDS011;6053;51.382;6.768;2023-05-07T14:48:48;1.70;;;1.30;;
11986;SDS011;6053;51.382;6.768;2023-05-07T14:51:16;1.02;;;1.02;;
11986;SDS011;6053;51.382;6.768;2023-05-07T14:53:44;3.38;;;1.40;;
11986;SDS011;6053;51.382;6.768;2023-05-07T14:56:13;2.72;;;1.67;;
11986;SDS011;6053;51.382;6.768;2023-05-07T14:58:41;1.40;;;1.30;;
11986;SDS011;6053;51.382;6.768;2023-05-07T15:01:09;4.13;;;1.65;;
11986;SDS011;6053;51.382;6.768;2023-05-07T15:03:39;1.50;;;1.40;;
11986;SDS011;6053;51.382;6.768;2023-05-07T15:06:08;1.85;;;1.60;;
11986;SDS011;6053;51.382;6.768;2023-05-07T15:08:36;1.50;;;1.40;;
11986;SDS011;6053;51.382;6.768;2023-05-07T15:11:05;1.60;;;1.47;;
11986;SDS011;6053;51.382;6.768;2023-05-07T15:13:33;1.87;;;1.70;;
11986;SDS011;6053;51.382;6.768;2023-05-07T15:16:01;1.20;;;1.00;;
11986;SDS011;6053;51.382;6.768;2023-05-07T15:18:29;1.45;;;1.35;;
11986;SDS011;6053;51.382;6.768;2023-05-07T15:20:59;0.90;;;0.85;;
11986;SDS011;6053;51.382;6.768;2023-05-07T15:23:27;0.98;;;0.98;;